createdAt,value
2017-06-21T00:02:39.667Z,1012.5
2017-06-21T00:12:55.362Z,1012.5
2017-06-21T00:23:09.818Z,1012.6
2017-06-21T00:33:23.603Z,1012.5
2017-06-21T00:43:37.608Z,1012.7
2017-06-21T00:53:52.339Z,1012.5
2017-06-21T01:04:06.929Z,1012.6
2017-06-21T01:14:21.921Z,1012.7
2017-06-21T01:24:35.990Z,1012.7
2017-06-21T01:34:50.166Z,1012.8
2017-06-21T01:45:03.952Z,1012.8
2017-06-21T01:55:19.088Z,1012.8
2017-06-21T02:05:33.018Z,1012.8
2017-06-21T02:15:48.441Z,1012.7
2017-06-21T02:26:03.042Z,1012.6
2017-06-21T02:36:16.858Z,1012.6
2017-06-21T02:46:32.575Z,1012.5
2017-06-21T02:56:47.079Z,1012.5
2017-06-21T03:07:00.996Z,1012.5
2017-06-21T03:17:15.313Z,1012.5
2017-06-21T03:27:29.922Z,1012.5
2017-06-21T03:37:43.774Z,1012.5
2017-06-21T03:47:59.400Z,1012.4
2017-06-21T03:58:14.960Z,1012.3
2017-06-21T04:08:30.364Z,1012.4
2017-06-21T04:18:45.322Z,1012.4
2017-06-21T04:29:00.700Z,1012.4
2017-06-21T04:39:15.305Z,1012.4
2017-06-21T04:49:29.583Z,1012.5
2017-06-21T04:59:45.229Z,1012.6
2017-06-21T05:10:00.726Z,1012.7
2017-06-21T05:20:15.122Z,1012.7
2017-06-21T05:30:29.355Z,1012.7
2017-06-21T05:40:43.406Z,1012.8
2017-06-21T05:50:59.080Z,1012.8
2017-06-21T06:01:14.847Z,1012.9
2017-06-21T06:11:30.215Z,1012.9
2017-06-21T06:21:43.874Z,1012.8
2017-06-21T06:31:57.730Z,1012.8
2017-06-21T06:42:13.407Z,1012.7
2017-06-21T06:52:27.497Z,1012.7
2017-06-21T07:02:42.040Z,1012.6
2017-06-21T07:12:56.381Z,1012.5
2017-06-21T07:23:11.919Z,1012.5
2017-06-21T07:33:26.775Z,1012.5
2017-06-21T07:43:41.503Z,1012.5
2017-06-21T07:53:56.468Z,1012.4
2017-06-21T08:04:11.912Z,1012.5
2017-06-21T08:14:26.957Z,1012.5
2017-06-21T08:24:41.736Z,1012.5
2017-06-21T08:34:57.422Z,1012.5
2017-06-21T08:45:12.043Z,1012.3
2017-06-21T08:55:26.176Z,1012.2
2017-06-21T09:05:41.126Z,1012.3
2017-06-21T09:15:55.389Z,1012.4
2017-06-21T09:26:10.446Z,1012.3
2017-06-21T09:36:25.122Z,1012.3
2017-06-21T09:46:40.352Z,1012.5
2017-06-21T09:56:55.339Z,1012.5
2017-06-21T10:07:09.788Z,1012.3
2017-06-21T10:17:25.362Z,1012.3
2017-06-21T10:27:39.776Z,1012.4
2017-06-21T10:37:55.163Z,1012.5
2017-06-21T10:48:10.774Z,1012.7
2017-06-21T10:58:25.968Z,1012.6
2017-06-21T11:08:40.680Z,1012.1
2017-06-21T11:18:55.970Z,1012.1
2017-06-21T11:29:11.366Z,1012
2017-06-21T11:39:27.092Z,1012.1
2017-06-21T11:59:58.839Z,1011.5
2017-06-21T12:10:14.848Z,1011.3
2017-06-21T12:20:28.933Z,1011.4
2017-06-21T12:30:44.610Z,1011.5
2017-06-21T12:40:59.300Z,1011.5
2017-06-21T12:51:14.933Z,1011.7
2017-06-21T13:01:29.144Z,1011.4
2017-06-21T13:11:43.842Z,1011.3
2017-06-21T13:21:58.397Z,1011.3
2017-06-21T13:32:12.497Z,1011.2
2017-06-21T13:42:28.061Z,1011.2
2017-06-21T13:52:42.753Z,1011
2017-06-21T14:02:56.940Z,1010.7
2017-06-21T14:13:11.578Z,1010.2
2017-06-21T14:33:40.475Z,1009.7
2017-06-21T14:43:56.278Z,1009.6
2017-06-21T14:54:10.498Z,1009.5
2017-06-21T15:04:26.072Z,1009.4
2017-06-21T15:14:40.749Z,1009.4
2017-06-21T15:24:55.429Z,1009.3
2017-06-21T15:35:09.535Z,1009.3
2017-06-21T15:45:23.698Z,1009.2
2017-06-21T15:55:39.039Z,1009.1
2017-06-21T16:05:53.576Z,1009.1
2017-06-21T16:16:09.222Z,1009
2017-06-21T16:26:24.953Z,1008.9
2017-06-21T16:36:40.850Z,1008.8
2017-06-21T16:46:55.510Z,1008.7
2017-06-21T17:07:24.022Z,1008.6
2017-06-21T17:17:38.032Z,1008.5
2017-06-21T17:27:52.711Z,1008.4
2017-06-21T17:38:07.554Z,1008.4
2017-06-21T17:48:22.674Z,1008.5
2017-06-21T17:58:38.299Z,1008.4
2017-06-21T18:08:52.220Z,1008.4
2017-06-21T18:19:06.509Z,1008.3
2017-06-21T18:29:20.923Z,1008.2
2017-06-21T18:39:36.455Z,1008.2
2017-06-21T18:49:50.800Z,1008.1
2017-06-21T19:00:04.996Z,1008.1
2017-06-21T19:10:19.490Z,1008.1
2017-06-21T19:20:35.270Z,1008.1
2017-06-21T19:41:05.437Z,1008.3
2017-06-21T19:51:20.279Z,1008.2
2017-06-21T20:01:36.065Z,1008.4
2017-06-21T20:11:51.593Z,1008.3
2017-06-21T20:22:06.076Z,1008.4
2017-06-21T20:32:19.996Z,1008.4
2017-06-21T20:42:34.265Z,1008.4
2017-06-21T20:52:48.102Z,1008.4
2017-06-21T21:03:02.935Z,1008.5
2017-06-21T21:13:16.817Z,1008.5
2017-06-21T21:23:31.575Z,1008.6
2017-06-21T21:33:46.193Z,1008.3
2017-06-21T21:44:00.593Z,1008.2
2017-06-21T21:54:15.531Z,1008.3
2017-06-21T22:04:30.108Z,1008.3
2017-06-21T22:14:44.441Z,1008.3
2017-06-21T22:24:59.483Z,1008.2
2017-06-21T22:35:14.907Z,1008.3
2017-06-21T22:45:29.762Z,1008.2
2017-06-21T22:55:45.054Z,1008
2017-06-21T23:05:59.214Z,1007.8
2017-06-21T23:16:14.441Z,1007.8
2017-06-21T23:26:29.809Z,1007.5
2017-06-21T23:36:45.361Z,1007.4
2017-06-21T23:47:00.094Z,1007.2
2017-06-21T23:57:15.090Z,1007
